Time;durP1;ratioP1;P1;durP2;ratioP2;P2;SDS_P1;SDS_P2;PMS_P1;PMS_P2;Temp;Humidity;BMP_temperature;BMP_pressure;BME280_temperature;BME280_humidity;BME280_pressure;Samples;Min_cycle;Max_cycle;Signal;HPM_P1;HPM_P2
2023/03/09 00:00:22;;;;;;;26.40;22.80;;;;;;;7.15;100.00;96740.61;109485;1250;59002;-72
2023/03/09 00:03:15;;;;;;;25.80;20.10;;;;;;;7.16;100.00;96742.00;109671;1250;67428;-72
2023/03/09 00:05:54;;;;;;;24.60;21.00;;;;;;;7.18;100.00;96736.36;109714;1250;59876;-72
2023/03/09 00:08:21;;;;;;;24.80;20.70;;;;;;;7.19;100.00;96737.02;109670;1250;64309;-72
2023/03/09 00:10:51;;;;;;;29.50;22.90;;;;;;;7.20;100.00;96735.70;109636;1250;58981;-72
2023/03/09 00:13:20;;;;;;;25.90;20.60;;;;;;;7.20;100.00;96733.73;109650;1250;59012;-72
2023/03/09 00:15:50;;;;;;;23.60;21.10;;;;;;;7.21;100.00;96734.33;109661;1250;66103;-71
2023/03/09 00:18:20;;;;;;;;;;;;;;;7.21;100.00;96727.98;109698;1250;70723;-72
2023/03/09 00:20:47;;;;;;;25.20;20.00;;;;;;;7.21;100.00;96725.71;109653;1250;65967;-72
2023/03/09 00:23:17;;;;;;;22.30;18.50;;;;;;;7.21;100.00;96725.35;109713;1250;58963;-73
2023/03/09 00:25:45;;;;;;;23.00;19.00;;;;;;;7.21;100.00;96726.25;109714;1250;58893;-73
2023/03/09 00:28:12;;;;;;;23.20;19.70;;;;;;;7.21;100.00;96726.77;109686;1250;65357;-72
2023/03/09 00:30:38;;;;;;;23.10;19.20;;;;;;;7.21;100.00;96722.66;109727;1250;60078;-72
2023/03/09 00:33:05;;;;;;;19.90;17.70;;;;;;;7.21;100.00;96723.73;109648;1250;62524;-72
2023/03/09 00:35:35;;;;;;;19.20;17.20;;;;;;;7.22;100.00;96728.10;109666;1250;59081;-72
2023/03/09 00:38:02;;;;;;;21.10;16.10;;;;;;;7.22;100.00;96726.65;109651;1250;59306;-72
2023/03/09 00:40:30;;;;;;;19.90;16.00;;;;;;;7.22;100.00;96722.23;109595;1250;67030;-72
2023/03/09 00:42:56;;;;;;;20.00;17.90;;;;;;;7.22;100.00;96721.88;109637;1250;61694;-72
2023/03/09 00:45:23;;;;;;;19.00;16.70;;;;;;;7.22;100.00;96717.11;109604;1250;65213;-72
2023/03/09 00:47:50;;;;;;;19.10;17.00;;;;;;;7.22;100.00;96716.78;109657;1250;59027;-71
2023/03/09 00:50:17;;;;;;;19.70;17.60;;;;;;;7.22;100.00;96714.82;109638;1250;59033;-71
2023/03/09 00:52:43;;;;;;;19.30;17.10;;;;;;;7.22;100.00;96710.02;109641;1250;65652;-72
2023/03/09 00:55:10;;;;;;;18.80;16.80;;;;;;;7.23;100.00;96710.89;109753;1250;60685;-72
2023/03/09 00:57:37;;;;;;;21.10;16.50;;;;;;;7.22;100.00;96706.48;109639;1250;64766;-72
2023/03/09 01:00:06;;;;;;;21.50;17.00;;;;;;;7.22;100.00;96699.10;109645;1250;59285;-72
2023/03/09 01:02:33;;;;;;;17.40;15.10;;;;;;;7.23;100.00;96696.38;109698;1250;58842;-72
2023/03/09 01:05:00;;;;;;;17.70;15.30;;;;;;;7.23;100.00;96692.81;109363;1250;64889;-72
2023/03/09 01:07:29;;;;;;;17.90;15.20;;;;;;;7.23;100.00;96687.02;109675;1250;61216;-72
2023/03/09 01:09:56;;;;;;;16.40;14.60;;;;;;;7.22;100.00;96684.06;109381;1250;63146;-73
2023/03/09 01:12:23;;;;;;;19.60;16.00;;;;;;;7.22;100.00;96679.33;109666;1250;59059;-73
2023/03/09 01:14:54;;;;;;;23.50;20.70;;;;;;;7.22;100.00;96672.30;109369;1250;59384;-72
2023/03/09 01:17:20;;;;;;;22.50;20.10;;;;;;;7.21;100.00;96667.39;109624;1250;65666;-72
2023/03/09 01:19:47;;;;;;;22.10;19.90;;;;;;;7.21;100.00;96664.08;109621;1250;59797;-72
2023/03/09 01:22:13;;;;;;;21.90;19.60;;;;;;;7.20;100.00;96664.55;109360;1250;63683;-72
2023/03/09 01:24:40;;;;;;;21.10;18.80;;;;;;;7.18;100.00;96665.41;109626;1250;59087;-72
2023/03/09 01:27:07;;;;;;;22.90;20.50;;;;;;;7.16;100.00;96665.71;109669;1250;59034;-73
2023/03/09 01:29:34;;;;;;;22.20;19.40;;;;;;;7.15;100.00;96664.63;109641;1250;67049;-72
2023/03/09 01:32:00;;;;;;;21.00;18.90;;;;;;;7.14;100.00;96661.89;109365;1250;60038;-72
2023/03/09 01:34:27;;;;;;;24.90;20.50;;;;;;;7.14;100.00;96657.85;109682;1250;63895;-72
2023/03/09 01:36:54;;;;;;;25.20;22.40;;;;;;;7.12;100.00;96654.25;109609;1250;59240;-72
2023/03/09 01:39:20;;;;;;;26.50;23.70;;;;;;;7.12;100.00;96653.55;109431;1250;59075;-73
2023/03/09 01:41:47;;;;;;;25.20;22.50;;;;;;;7.13;100.00;96649.65;109422;1250;64465;-72
2023/03/09 01:44:14;;;;;;;26.70;22.20;;;;;;;7.13;100.00;96647.83;109634;1250;59860;-72
2023/03/09 01:46:48;;;;;;;27.40;24.10;;;;;;;7.13;100.00;96642.35;109659;1250;65265;-72
2023/03/09 01:49:24;;;;;;;26.10;23.30;;;;;;;7.14;100.00;96637.20;109619;1250;59980;-72
2023/03/09 01:52:35;;;;;;;26.70;23.90;;;;;;;7.12;100.00;96640.67;109671;1250;58854;-72
2023/03/09 01:55:09;;;;;;;27.40;24.70;;;;;;;7.10;100.00;96635.90;109058;1257;66515;-72
2023/03/09 01:57:41;;;;;;;28.70;25.30;;;;;;;7.11;100.00;96635.35;109084;1257;61152;-71
2023/03/09 02:00:16;;;;;;;30.00;26.80;;;;;;;7.11;100.00;96637.39;109057;1257;64214;-71
2023/03/09 02:02:46;;;;;;;32.10;28.20;;;;;;;7.12;100.00;96632.70;109000;1257;59052;-71
2023/03/09 02:05:19;;;;;;;28.90;25.90;;;;;;;7.13;100.00;96637.20;109068;1257;59844;-71
2023/03/09 02:07:50;;;;;;;25.90;23.30;;;;;;;7.14;100.00;96635.57;109079;1257;66777;-72
2023/03/09 02:10:32;;;;;;;26.80;23.90;;;;;;;7.15;100.00;96635.33;109057;1257;61500;-72
2023/03/09 02:13:11;;;;;;;27.50;24.50;;;;;;;7.14;100.00;96634.32;109011;1257;65138;-72
2023/03/09 02:15:38;;;;;;;30.60;27.50;;;;;;;7.14;100.00;96637.52;108994;1257;59030;-72
2023/03/09 02:18:05;;;;;;;33.90;30.20;;;;;;;7.13;100.00;96637.96;109089;1257;58959;-72
2023/03/09 02:20:41;;;;;;;34.60;30.90;;;;;;;7.13;100.00;96637.46;108998;1257;65206;-72
2023/03/09 02:23:20;;;;;;;31.20;28.10;;;;;;;7.13;100.00;96639.20;109044;1257;60225;-72
2023/03/09 02:25:52;;;;;;;29.80;26.80;;;;;;;7.13;100.00;96640.45;109009;1257;64807;-72
2023/03/09 02:28:19;;;;;;;31.00;27.70;;;;;;;7.12;100.00;96643.00;108989;1257;59067;-72
2023/03/09 02:30:48;;;;;;;30.80;27.60;;;;;;;7.12;100.00;96647.39;109066;1257;59136;-72
2023/03/09 02:33:30;;;;;;;30.90;27.40;;;;;;;7.11;100.00;96647.14;109636;1250;65675;-72
2023/03/09 02:35:59;;;;;;;33.60;28.90;;;;;;;7.10;100.00;96644.41;109609;1250;59829;-72
2023/03/09 02:38:26;;;;;;;33.80;29.30;;;;;;;7.10;100.00;96643.15;109617;1250;65205;-72
2023/03/09 02:40:57;;;;;;;33.50;29.30;;;;;;;7.11;100.00;96642.76;109612;1250;59265;-72
2023/03/09 02:43:30;;;;;;;36.80;30.10;;;;;;;7.12;100.00;96644.58;109664;1250;58861;-72
2023/03/09 02:45:56;;;;;;;34.20;28.70;;;;;;;7.13;100.00;96642.54;109622;1250;66753;-72
2023/03/09 02:48:23;;;;;;;32.80;29.60;;;;;;;7.13;100.00;96640.92;109656;1250;60728;-72
2023/03/09 02:50:50;;;;;;;36.20;29.00;;;;;;;7.14;100.00;96636.80;109614;1250;64809;-72
2023/03/09 02:53:17;;;;;;;32.00;28.50;;;;;;;7.14;100.00;96632.38;109654;1250;59011;-72
2023/03/09 02:55:43;;;;;;;32.00;27.70;;;;;;;7.14;100.00;96630.95;109464;1250;59085;-72
2023/03/09 02:58:10;;;;;;;31.00;27.70;;;;;;;7.15;100.00;96627.57;109672;1250;65898;-72
2023/03/09 03:01:01;;;;;;;29.50;26.40;;;;;;;7.16;100.00;96622.35;109677;1250;60731;-72
2023/03/09 03:03:28;;;;;;;25.50;22.80;;;;;;;7.16;100.00;96622.28;109601;1250;65190;-72
2023/03/09 03:05:55;;;;;;;31.00;26.60;;;;;;;7.18;100.00;96624.98;109642;1250;58986;-71
2023/03/09 03:08:22;;;;;;;29.40;24.80;;;;;;;7.19;100.00;96622.88;109699;1250;58948;-72
2023/03/09 03:10:48;;;;;;;29.70;26.40;;;;;;;7.20;100.00;96616.47;109677;1250;66767;-71
2023/03/09 03:13:15;;;;;;;28.60;25.50;;;;;;;7.21;100.00;96612.32;109508;1250;59805;-72
2023/03/09 03:15:42;;;;;;;27.90;25.00;;;;;;;7.22;100.00;96615.98;109665;1250;64724;-72
2023/03/09 03:18:09;;;;;;;29.10;26.10;;;;;;;7.22;100.00;96615.95;109593;1250;59004;-72
2023/03/09 03:20:35;;;;;;;26.80;24.00;;;;;;;7.22;100.00;96611.45;109684;1250;59442;-72
2023/03/09 03:23:02;;;;;;;27.60;24.60;;;;;;;7.23;100.00;96612.31;109619;1250;66695;-72
2023/03/09 03:25:29;;;;;;;25.10;22.40;;;;;;;7.24;100.00;96612.90;109685;1250;60720;-72
2023/03/09 03:27:57;;;;;;;23.30;20.40;;;;;;;7.24;100.00;96609.89;109646;1250;64711;-72
2023/03/09 03:30:24;;;;;;;22.60;20.30;;;;;;;7.25;100.00;96603.31;109615;1250;59079;-72
2023/03/09 03:32:53;;;;;;;26.10;23.50;;;;;;;7.24;100.00;96602.66;109620;1250;59039;-72
2023/03/09 03:35:20;;;;;;;25.50;23.10;;;;;;;7.24;100.00;96599.54;109605;1250;66915;-72
2023/03/09 03:37:47;;;;;;;20.00;17.90;;;;;;;7.25;100.00;96600.33;109620;1250;60747;-72
2023/03/09 03:40:13;;;;;;;18.10;16.30;;;;;;;7.24;100.00;96596.11;109489;1250;63947;-72
2023/03/09 03:42:40;;;;;;;17.10;15.50;;;;;;;7.24;100.00;96592.38;109626;1250;59023;-72
2023/03/09 03:45:07;;;;;;;19.60;17.60;;;;;;;7.25;100.00;96587.38;109282;1250;59062;-72
2023/03/09 03:47:34;;;;;;;19.80;17.90;;;;;;;7.27;100.00;96585.63;109649;1250;65769;-72
2023/03/09 03:50:00;;;;;;;14.60;13.20;;;;;;;7.29;100.00;96586.38;109576;1250;59726;-72
2023/03/09 03:52:27;;;;;;;13.40;12.30;;;;;;;7.29;100.00;96589.83;109645;1250;65154;-72
2023/03/09 03:54:53;;;;;;;12.50;11.40;;;;;;;7.30;100.00;96580.64;109637;1250;59051;-72
2023/03/09 03:57:22;;;;;;;13.00;11.80;;;;;;;7.31;100.00;96580.31;109630;1250;58933;-72
2023/03/09 03:59:49;;;;;;;11.70;10.50;;;;;;;7.32;100.00;96580.96;109686;1250;65652;-72
2023/03/09 04:02:16;;;;;;;9.70;8.80;;;;;;;7.32;100.00;96577.77;109661;1250;60912;-72
2023/03/09 04:04:43;;;;;;;10.60;9.50;;;;;;;7.33;100.00;96576.45;109662;1250;64231;-73
2023/03/09 04:07:10;;;;;;;11.20;10.20;;;;;;;7.32;100.00;96577.01;109589;1250;58953;-72
2023/03/09 04:09:36;;;;;;;11.80;10.70;;;;;;;7.33;100.00;96575.39;109650;1250;59010;-72
2023/03/09 04:12:03;;;;;;;11.00;10.00;;;;;;;7.34;100.00;96575.85;109687;1250;65846;-72
2023/03/09 04:14:32;;;;;;;10.10;9.30;;;;;;;7.34;100.00;96577.61;109609;1250;59886;-72
2023/03/09 04:16:58;;;;;;;9.60;8.80;;;;;;;7.34;100.00;96580.79;109607;1250;65271;-72
2023/03/09 04:19:25;;;;;;;6.20;5.60;;;;;;;7.35;100.00;96577.36;109648;1250;58983;-72
2023/03/09 04:21:51;;;;;;;6.30;5.60;;;;;;;7.34;100.00;96577.02;109651;1250;58878;-72
2023/03/09 04:24:18;;;;;;;6.10;5.60;;;;;;;7.35;100.00;96575.73;109631;1250;65707;-72
2023/03/09 04:26:44;;;;;;;6.80;5.90;;;;;;;7.35;100.00;96575.52;109661;1250;59764;-71
2023/03/09 04:29:11;;;;;;;6.60;5.90;;;;;;;7.35;100.00;96570.58;109643;1250;63734;-72
2023/03/09 04:31:38;;;;;;;5.80;5.30;;;;;;;7.35;100.00;96571.45;109623;1250;58970;-72
2023/03/09 04:34:04;;;;;;;7.90;5.40;;;;;;;7.36;100.00;96567.17;109503;1250;59034;-71
2023/03/09 04:36:31;;;;;;;7.40;6.10;;;;;;;7.36;100.00;96568.20;109673;1250;67087;-71
2023/03/09 04:38:58;;;;;;;10.90;9.30;;;;;;;7.35;100.00;96561.19;109662;1250;61275;-72
2023/03/09 04:41:24;;;;;;;9.20;8.10;;;;;;;7.36;100.00;96564.30;109618;1250;63703;-72
2023/03/09 04:43:51;;;;;;;10.40;9.30;;;;;;;7.36;100.00;96560.76;109608;1250;59310;-72
2023/03/09 04:46:17;;;;;;;10.40;9.40;;;;;;;7.37;100.00;96563.55;109653;1250;58976;-71
2023/03/09 04:48:44;;;;;;;11.10;10.00;;;;;;;7.37;100.00;96561.39;109669;1250;66094;-72
2023/03/09 04:51:10;;;;;;;10.30;9.40;;;;;;;7.37;100.00;96558.90;109667;1250;59786;-72
2023/03/09 04:53:37;;;;;;;10.40;9.40;;;;;;;7.37;100.00;96551.85;109663;1250;65000;-72
2023/03/09 04:56:04;;;;;;;10.50;9.40;;;;;;;7.38;100.00;96547.58;109602;1250;58990;-72
2023/03/09 04:58:30;;;;;;;12.00;9.60;;;;;;;7.37;100.00;96546.55;109595;1250;59042;-72
2023/03/09 05:00:57;;;;;;;11.80;10.60;;;;;;;7.39;100.00;96543.78;109646;1250;67148;-72
2023/03/09 05:03:24;;;;;;;11.40;10.30;;;;;;;7.41;100.00;96545.34;109706;1250;61095;-71
2023/03/09 05:05:51;;;;;;;12.80;11.60;;;;;;;7.41;100.00;96541.55;109676;1250;64690;-72
2023/03/09 05:08:17;;;;;;;12.00;10.90;;;;;;;7.42;100.00;96540.25;109262;1250;59061;-72
2023/03/09 05:10:44;;;;;;;13.80;12.40;;;;;;;7.43;100.00;96539.45;109692;1250;58939;-73
2023/03/09 05:13:11;;;;;;;15.00;13.70;;;;;;;7.44;100.00;96539.77;109643;1250;65667;-72
2023/03/09 05:15:39;;;;;;;15.60;14.20;;;;;;;7.43;100.00;96540.87;109687;1250;59742;-72
2023/03/09 05:18:07;;;;;;;15.60;14.20;;;;;;;7.43;100.00;96540.83;109582;1250;64720;-73
2023/03/09 05:20:33;;;;;;;17.40;15.60;;;;;;;7.44;100.00;96543.58;109653;1250;59048;-72
2023/03/09 05:23:01;;;;;;;16.10;14.50;;;;;;;7.45;100.00;96538.59;109653;1250;59175;-71
2023/03/09 05:25:27;;;;;;;16.60;14.80;;;;;;;7.45;100.00;96538.92;109689;1250;66779;-71
2023/03/09 05:27:54;;;;;;;16.00;14.40;;;;;;;7.45;100.00;96540.13;109689;1250;61118;-72
2023/03/09 05:30:21;;;;;;;16.00;14.50;;;;;;;7.46;100.00;96538.09;109633;1250;64712;-72
2023/03/09 05:32:49;;;;;;;19.00;15.80;;;;;;;7.47;100.00;96536.08;109645;1250;58945;-72
2023/03/09 05:35:18;;;;;;;19.60;17.40;;;;;;;7.48;100.00;96535.10;109653;1250;58998;-72
2023/03/09 05:37:45;;;;;;;18.20;16.20;;;;;;;7.50;100.00;96537.08;109324;1250;65973;-72
2023/03/09 05:40:13;;;;;;;19.60;16.10;;;;;;;7.52;100.00;96537.97;109702;1250;60696;-72
2023/03/09 05:42:41;;;;;;;18.00;16.10;;;;;;;7.53;100.00;96531.98;109643;1250;65208;-72
2023/03/09 05:45:08;;;;;;;17.90;15.80;;;;;;;7.54;100.00;96533.27;109594;1250;59127;-72
2023/03/09 05:47:35;;;;;;;19.90;16.20;;;;;;;7.56;100.00;96532.89;109331;1250;59190;-72
2023/03/09 05:50:02;;;;;;;17.60;14.40;;;;;;;7.59;100.00;96530.67;109672;1250;65625;-72
2023/03/09 05:52:29;;;;;;;19.30;15.00;;;;;;;7.62;100.00;96533.47;109660;1250;60047;-71
2023/03/09 05:54:55;;;;;;;17.90;15.30;;;;;;;7.65;100.00;96534.56;109613;1250;64742;-72
2023/03/09 05:57:22;;;;;;;19.20;15.80;;;;;;;7.69;100.00;96534.14;109648;1250;59013;-72
2023/03/09 05:59:49;;;;;;;20.30;16.90;;;;;;;7.78;100.00;96535.48;109599;1250;59009;-72
2023/03/09 06:02:15;;;;;;;19.30;16.90;;;;;;;7.87;100.00;96530.50;109701;1250;66723;-71
2023/03/09 06:04:42;;;;;;;21.90;17.40;;;;;;;7.97;100.00;96528.34;109684;1250;61112;-71
2023/03/09 06:07:09;;;;;;;21.10;16.30;;;;;;;8.05;100.00;96528.48;109663;1250;64861;-71
2023/03/09 06:09:35;;;;;;;22.30;17.70;;;;;;;8.12;100.00;96529.04;109626;1250;58998;-71
2023/03/09 06:12:02;;;;;;;20.30;16.30;;;;;;;8.19;100.00;96531.39;109716;1250;59017;-71
2023/03/09 06:14:29;;;;;;;20.90;16.60;;;;;;;8.23;100.00;96525.81;109684;1250;67304;-71
2023/03/09 06:16:57;;;;;;;20.20;16.90;;;;;;;8.27;100.00;96524.20;109679;1250;60208;-71
2023/03/09 06:19:24;;;;;;;20.10;16.20;;;;;;;8.31;100.00;96525.95;109294;1250;64719;-72
2023/03/09 06:21:51;;;;;;;19.40;16.70;;;;;;;8.36;100.00;96525.16;109607;1250;58967;-71
2023/03/09 06:24:17;;;;;;;17.30;14.40;;;;;;;8.42;100.00;96520.69;109658;1250;58912;-72
2023/03/09 06:26:44;;;;;;;17.30;13.70;;;;;;;8.47;100.00;96520.86;109646;1250;66582;-73
2023/03/09 06:29:10;;;;;;;16.10;13.90;;;;;;;8.51;100.00;96523.31;109357;1250;60743;-72
2023/03/09 06:31:37;;;;;;;15.90;14.30;;;;;;;8.54;100.00;96524.91;109688;1250;64844;-72
2023/03/09 06:34:04;;;;;;;15.40;13.10;;;;;;;8.58;100.00;96523.85;109660;1250;58954;-73
2023/03/09 06:36:32;;;;;;;13.60;11.70;;;;;;;8.61;100.00;96523.22;109674;1250;58888;-74
2023/03/09 06:38:59;;;;;;;16.00;12.70;;;;;;;8.64;100.00;96527.75;109669;1250;66959;-72
2023/03/09 06:41:31;;;;;;;17.20;13.40;;;;;;;8.66;100.00;96524.86;109667;1250;60143;-73
2023/03/09 06:43:59;;;;;;;16.20;14.50;;;;;;;8.69;100.00;96523.15;109679;1250;65052;-73
2023/03/09 06:46:26;;;;;;;19.80;16.90;;;;;;;8.71;100.00;96522.96;109634;1250;58965;-74
2023/03/09 06:48:53;;;;;;;23.40;19.60;;;;;;;8.72;100.00;96522.62;109625;1250;58848;-73
2023/03/09 06:51:20;;;;;;;20.00;17.70;;;;;;;8.76;100.00;96520.66;109673;1250;65903;-72
2023/03/09 06:53:47;;;;;;;18.80;16.80;;;;;;;8.81;100.00;96518.55;109729;1250;59853;-72
2023/03/09 06:56:14;;;;;;;16.60;13.90;;;;;;;8.89;100.00;96516.05;109652;1250;64716;-72
2023/03/09 06:58:41;;;;;;;17.90;14.30;;;;;;;8.98;100.00;96512.98;109647;1250;58956;-72
2023/03/09 07:01:09;;;;;;;13.40;12.00;;;;;;;9.09;100.00;96511.70;109731;1250;59024;-72
2023/03/09 07:03:37;;;;;;;15.90;14.30;;;;;;;9.22;100.00;96505.42;109685;1250;67251;-72
2023/03/09 07:06:04;;;;;;;17.10;15.40;;;;;;;9.38;100.00;96509.27;109383;1250;60835;-72
2023/03/09 07:08:31;;;;;;;17.40;15.60;;;;;;;9.51;100.00;96508.67;109647;1250;65073;-72
2023/03/09 07:10:58;;;;;;;14.50;12.70;;;;;;;9.58;100.00;96503.33;109624;1250;58992;-72
2023/03/09 07:13:25;;;;;;;12.60;11.00;;;;;;;9.61;100.00;96500.41;109663;1250;59024;-72
2023/03/09 07:15:52;;;;;;;14.10;12.00;;;;;;;9.58;100.00;96499.66;109710;1250;66671;-72
2023/03/09 07:18:18;;;;;;;12.90;11.10;;;;;;;9.52;100.00;96497.46;109672;1250;61228;-73
2023/03/09 07:20:45;;;;;;;14.60;12.20;;;;;;;9.47;100.00;96491.60;109698;1250;65136;-73
2023/03/09 07:23:12;;;;;;;17.20;13.00;;;;;;;9.44;100.00;96486.49;109663;1250;59147;-72
2023/03/09 07:25:39;;;;;;;16.40;14.20;;;;;;;9.43;100.00;96481.67;109569;1250;59033;-72
2023/03/09 07:28:07;;;;;;;16.20;14.60;;;;;;;9.41;100.00;96476.04;109660;1250;66966;-72
2023/03/09 07:30:36;;;;;;;15.90;14.30;;;;;;;9.35;100.00;96470.77;109652;1251;60819;-72
2023/03/09 07:33:02;;;;;;;12.80;11.50;;;;;;;9.31;100.00;96469.11;109677;1250;65088;-72
2023/03/09 07:35:29;;;;;;;11.10;9.60;;;;;;;9.28;100.00;96464.98;109638;1250;59138;-72
2023/03/09 07:37:57;;;;;;;10.80;8.80;;;;;;;9.27;100.00;96462.98;109648;1250;58887;-72
2023/03/09 07:40:24;;;;;;;8.60;7.70;;;;;;;9.28;100.00;96468.89;109686;1250;66826;-72
2023/03/09 07:42:53;;;;;;;8.10;7.20;;;;;;;9.30;100.00;96480.27;109630;1250;60234;-71
2023/03/09 07:45:21;;;;;;;10.00;8.80;;;;;;;9.27;100.00;96494.16;109631;1250;64991;-73
2023/03/09 07:47:49;;;;;;;8.70;7.80;;;;;;;9.21;100.00;96499.47;109522;1250;58889;-73
2023/03/09 07:50:16;;;;;;;9.90;8.00;;;;;;;9.18;100.00;96503.38;109514;1250;59037;-72
2023/03/09 07:52:43;;;;;;;8.40;7.60;;;;;;;9.17;100.00;96503.80;109619;1250;67199;-72
2023/03/09 07:55:11;;;;;;;8.70;7.80;;;;;;;9.19;100.00;96501.95;109649;1250;59333;-78
2023/03/09 07:57:39;;;;;;;7.70;6.90;;;;;;;9.25;100.00;96506.33;109534;1250;64823;-81
2023/03/09 08:00:12;;;;;;;8.70;7.90;;;;;;;9.30;100.00;96505.95;109438;1250;58949;-78
2023/03/09 08:02:40;;;;;;;8.50;7.70;;;;;;;9.31;100.00;96506.98;109490;1250;59146;-79
2023/03/09 08:05:09;;;;;;;9.10;7.70;;;;;;;9.34;100.00;96504.04;109723;1250;66985;-83
2023/03/09 08:07:36;;;;;;;8.00;7.20;;;;;;;9.42;100.00;96508.38;109644;1250;60724;-79
2023/03/09 08:10:04;;;;;;;8.30;7.50;;;;;;;9.47;100.00;96504.52;109692;1250;63918;-84
2023/03/09 08:12:31;;;;;;;7.00;6.30;;;;;;;9.51;100.00;96503.09;109616;1250;59117;-82
2023/03/09 08:14:57;;;;;;;8.40;7.50;;;;;;;9.50;100.00;96508.30;109674;1250;58964;-80
2023/03/09 08:17:24;;;;;;;8.10;7.30;;;;;;;9.47;100.00;96509.45;109664;1250;67200;-79
2023/03/09 08:19:51;;;;;;;9.40;8.50;;;;;;;9.45;100.00;96507.70;109702;1250;61045;-80
2023/03/09 08:22:17;;;;;;;8.60;7.80;;;;;;;9.49;100.00;96510.71;109616;1250;65161;-81
2023/03/09 08:24:44;;;;;;;8.30;7.50;;;;;;;9.60;100.00;96507.36;109358;1250;58963;-82
2023/03/09 08:27:11;;;;;;;9.30;6.80;;;;;;;9.73;100.00;96504.30;109668;1250;58992;-82
2023/03/09 08:29:37;;;;;;;9.70;7.10;;;;;;;9.78;100.00;96509.15;109696;1250;67270;-82
2023/03/09 08:32:06;;;;;;;9.90;7.00;;;;;;;9.79;100.00;96510.41;109644;1250;61243;-81
2023/03/09 08:34:33;;;;;;;8.10;6.50;;;;;;;9.79;100.00;96508.85;109595;1250;65045;-82
2023/03/09 08:36:59;;;;;;;8.00;7.20;;;;;;;9.71;100.00;96506.78;109612;1250;58987;-79
2023/03/09 08:39:26;;;;;;;10.20;7.50;;;;;;;9.61;100.00;96509.29;109658;1250;59164;-82
2023/03/09 08:41:53;;;;;;;9.90;7.10;;;;;;;9.51;100.00;96517.73;109633;1250;67199;-81
2023/03/09 08:44:19;;;;;;;11.00;7.10;;;;;;;9.45;100.00;96518.17;109667;1250;60755;-80
2023/03/09 08:46:46;;;;;;;9.70;7.00;;;;;;;9.44;100.00;96517.70;109264;1250;63761;-80
2023/03/09 08:49:13;;;;;;;8.60;6.40;;;;;;;9.49;100.00;96516.52;109650;1254;58956;-80
2023/03/09 08:51:39;;;;;;;11.80;7.70;;;;;;;9.52;100.00;96522.73;109661;1250;59029;-80
2023/03/09 08:54:06;;;;;;;9.00;8.10;;;;;;;9.58;100.00;96515.63;109657;1250;67180;-81
2023/03/09 08:56:36;;;;;;;8.90;7.00;;;;;;;9.59;100.00;96512.71;109674;1250;60768;-80
2023/03/09 08:59:03;;;;;;;7.60;6.30;;;;;;;9.59;100.00;96513.67;109645;1250;65071;-80
2023/03/09 09:01:31;;;;;;;7.10;6.00;;;;;;;9.66;100.00;96518.16;109648;1250;59042;-80
2023/03/09 09:03:58;;;;;;;6.60;5.90;;;;;;;9.79;100.00;96519.26;109675;1250;59017;-80
2023/03/09 09:06:24;;;;;;;7.50;5.40;;;;;;;9.93;100.00;96516.77;109725;1250;66246;-79
2023/03/09 09:08:51;;;;;;;7.90;5.30;;;;;;;10.01;100.00;96518.19;109656;1250;59825;-80
2023/03/09 09:11:18;;;;;;;6.60;5.40;;;;;;;10.00;100.00;96519.83;109664;1250;65045;-80
2023/03/09 09:13:45;;;;;;;7.80;6.20;;;;;;;10.00;100.00;96521.21;109648;1250;58916;-80
2023/03/09 09:16:13;;;;;;;7.50;5.60;;;;;;;9.98;100.00;96525.86;109660;1253;58835;-80
2023/03/09 09:18:41;;;;;;;7.60;6.80;;;;;;;9.95;100.00;96526.71;109328;1250;64462;-80
2023/03/09 09:21:13;;;;;;;8.80;7.60;;;;;;;9.95;100.00;96526.48;109643;1250;60727;-79
2023/03/09 09:23:41;;;;;;;7.20;5.80;;;;;;;9.95;100.00;96528.09;109352;1254;65109;-80
2023/03/09 09:26:09;;;;;;;7.00;6.20;;;;;;;9.92;100.00;96531.63;109364;1253;58959;-80
2023/03/09 09:28:36;;;;;;;8.90;5.50;;;;;;;9.87;100.00;96531.94;109396;1254;59132;-79
2023/03/09 09:31:03;;;;;;;6.80;5.50;;;;;;;9.83;100.00;96532.52;109358;1254;66819;-79
2023/03/09 09:33:33;;;;;;;8.50;5.30;;;;;;;9.79;100.00;96538.11;109326;1254;61062;-77
2023/03/09 09:36:06;;;;;;;7.30;6.30;;;;;;;9.80;100.00;96546.79;109343;1254;65185;-80
2023/03/09 09:38:33;;;;;;;7.00;6.10;;;;;;;9.80;100.00;96552.48;109141;1254;59042;-77
2023/03/09 09:41:17;;;;;;;9.20;7.20;;;;;;;9.77;100.00;96554.05;109356;1254;59087;-79
2023/03/09 09:43:48;;;;;;;8.00;6.70;;;;;;;9.74;100.00;96553.17;109316;1254;67040;-79
2023/03/09 09:46:17;;;;;;;11.50;7.50;;;;;;;9.80;100.00;96557.83;109375;1254;59196;-80
2023/03/09 09:48:47;;;;;;;13.80;9.60;;;;;;;9.89;100.00;96556.55;109381;1254;64450;-80
2023/03/09 09:51:22;;;;;;;19.10;14.90;;;;;;;9.94;100.00;96562.77;109375;1254;59137;-81
2023/03/09 09:54:15;;;;;;;17.50;13.00;;;;;;;9.96;100.00;96561.01;109378;1254;59044;-80
2023/03/09 09:56:49;;;;;;;11.60;7.40;;;;;;;9.98;100.00;96568.60;109699;1250;65883;-80
2023/03/09 09:59:23;;;;;;;7.70;6.80;;;;;;;9.94;100.00;96574.98;109712;1250;60086;-80
2023/03/09 10:01:52;;;;;;;5.20;4.30;;;;;;;9.89;100.00;96576.63;109480;1250;65338;-80
2023/03/09 10:04:36;;;;;;;6.00;5.20;;;;;;;9.85;100.00;96584.60;109671;1250;59031;-80
2023/03/09 10:07:17;;;;;;;6.20;5.50;;;;;;;9.87;100.00;96585.97;109287;1250;58967;-80
2023/03/09 10:09:48;;;;;;;6.30;5.70;;;;;;;9.92;100.00;96583.95;109631;1250;65669;-81
2023/03/09 10:12:16;;;;;;;6.90;5.80;;;;;;;9.95;100.00;96587.74;109666;1250;61012;-79
2023/03/09 10:15:04;;;;;;;7.80;5.60;;;;;;;9.95;100.00;96590.77;109669;1251;65652;-81
2023/03/09 10:18:00;;;;;;;7.00;5.70;;;;;;;9.99;100.00;96597.60;109529;1251;59127;-80
2023/03/09 10:20:50;;;;;;;7.40;5.50;;;;;;;10.08;100.00;96601.78;109665;1250;59858;-79
2023/03/09 10:23:27;;;;;;;6.70;6.10;;;;;;;10.14;100.00;96611.27;109657;1250;65973;-81
2023/03/09 10:26:18;;;;;;;7.50;6.60;;;;;;;10.14;100.00;96616.39;109628;1250;60854;-81
2023/03/09 10:28:49;;;;;;;8.10;6.30;;;;;;;10.09;100.00;96617.09;109640;1250;64897;-80
2023/03/09 10:31:20;;;;;;;8.00;6.90;;;;;;;10.04;100.00;96618.20;109635;1251;58965;-80
2023/03/09 10:34:29;;;;;;;7.80;6.50;;;;;;;10.02;100.00;96626.89;109679;1250;58996;-80
2023/03/09 10:36:59;;;;;;;8.00;6.60;;;;;;;9.99;100.00;96630.90;109200;1257;66045;-81
2023/03/09 10:39:40;;;;;;;8.30;6.50;;;;;;;9.95;100.00;96636.13;109011;1257;61235;-80
2023/03/09 10:42:41;;;;;;;7.10;6.30;;;;;;;10.00;100.00;96646.20;109186;1256;64206;-80
2023/03/09 10:45:22;;;;;;;8.40;7.00;;;;;;;10.04;100.00;96653.85;108739;1262;59375;-80
2023/03/09 10:47:54;;;;;;;8.10;7.30;;;;;;;10.06;100.00;96658.89;108757;1262;59147;-80
2023/03/09 10:50:25;;;;;;;8.60;7.20;;;;;;;10.15;100.00;96664.57;108674;1262;120637;-80
2023/03/09 10:52:54;;;;;;;8.10;7.00;;;;;;;10.16;100.00;96672.09;108782;1262;60584;-82
2023/03/09 10:55:25;;;;;;;7.80;6.90;;;;;;;10.11;100.00;96678.98;108786;1262;63833;-79
2023/03/09 10:58:21;;;;;;;9.50;6.30;;;;;;;10.05;100.00;96686.54;108795;1263;59113;-81
2023/03/09 11:01:11;;;;;;;7.80;6.80;;;;;;;9.99;100.00;96696.89;108453;1268;59104;-81
2023/03/09 11:03:39;;;;;;;7.70;6.90;;;;;;;9.92;100.00;96705.63;107889;1274;67260;-81
2023/03/09 11:06:12;;;;;;;7.40;6.60;;;;;;;9.85;100.00;96709.16;107828;1273;60327;-80
2023/03/09 11:08:44;;;;;;;7.70;5.70;;;;;;;9.78;100.00;96710.76;107850;1273;65266;-80
2023/03/09 11:11:20;;;;;;;7.50;6.70;;;;;;;9.69;100.00;96718.17;107813;1273;59197;-81
2023/03/09 11:13:47;;;;;;;9.50;8.60;;;;;;;9.63;100.00;96723.38;108079;1269;60790;-82
2023/03/09 11:16:21;;;;;;;12.60;11.20;;;;;;;9.62;100.00;96729.31;108604;1263;66354;-81
2023/03/09 11:19:03;;;;;;;9.90;8.20;;;;;;;9.61;100.00;96734.72;108961;1263;60993;-82
2023/03/09 11:21:30;;;;;;;9.60;7.80;;;;;;;9.59;100.00;96743.67;108925;1264;64108;-83
2023/03/09 11:24:01;;;;;;;9.20;7.70;;;;;;;9.56;100.00;96751.03;108773;1263;59450;-81